Time,TemperatureF,DewpointF,PressureIn,WindDirection,WindDirectionDegrees,WindSpeedMPH,WindSpeedGustMPH,Humidity,HourlyPrecipIn,Conditions,Clouds,dailyrainin,SoftwareType,DateUTC
2013-10-25 00:00:00,43.7,34.9,29.94,NW,315,8.0,9.0,71,0.00,,,0.22,meteohub,2013-10-25 04:00:00,
2013-10-25 00:01:00,43.7,34.9,29.94,NW,315,8.0,8.0,71,0.00,,,0.22,meteohub,2013-10-25 04:01:00,
2013-10-25 00:02:00,43.7,34.9,29.94,NW,315,8.0,8.0,71,0.00,,,0.22,meteohub,2013-10-25 04:02:00,
2013-10-25 00:03:00,43.7,34.9,29.94,NW,315,8.0,8.0,71,0.00,,,0.22,meteohub,2013-10-25 04:03:00,
2013-10-25 00:06:00,43.7,34.9,29.94,NW,315,8.0,8.0,71,0.00,,,0.00,meteohub,2013-10-25 04:06:00,
2013-10-25 00:11:00,43.9,33.6,29.94,SW,225,6.0,8.0,67,0.00,,,0.00,meteohub,2013-10-25 04:11:00,
2013-10-25 00:16:00,44.1,34.5,29.94,NE,45,7.0,9.0,69,0.00,,,0.00,meteohub,2013-10-25 04:16:00,
2013-10-25 00:21:00,44.1,34.2,29.94,NE,45,2.0,9.0,68,0.00,,,0.00,meteohub,2013-10-25 04:21:00,
2013-10-25 00:27:00,44.1,33.8,29.94,NW,315,6.0,7.0,67,0.00,,,0.00,meteohub,2013-10-25 04:27:00,
2013-10-25 00:32:00,44.2,33.6,29.94,SW,225,5.0,9.0,66,0.00,,,0.00,meteohub,2013-10-25 04:32:00,
2013-10-25 00:37:00,44.2,34.7,29.94,North,0,5.0,10.0,69,0.00,,,0.00,meteohub,2013-10-25 04:37:00,
2013-10-25 00:42:00,44.4,34.5,29.94,NE,45,5.0,10.0,68,0.00,,,0.00,meteohub,2013-10-25 04:42:00,
2013-10-25 00:47:00,44.4,34.5,29.94,SE,135,6.0,10.0,68,0.00,,,0.00,meteohub,2013-10-25 04:47:00,
2013-10-25 00:52:00,44.4,34.9,29.94,South,180,9.0,11.0,69,0.00,,,0.00,meteohub,2013-10-25 04:52:00,
2013-10-25 00:58:00,44.6,35.4,29.94,South,180,8.0,11.0,70,0.00,,,0.00,meteohub,2013-10-25 04:58:00,
2013-10-25 01:03:00,44.6,35.8,29.94,East,90,11.0,12.0,71,0.00,,,0.00,meteohub,2013-10-25 05:03:00,
2013-10-25 01:08:00,44.6,35.1,29.95,SW,225,5.0,12.0,69,0.00,,,0.00,meteohub,2013-10-25 05:08:00,
2013-10-25 01:13:00,44.6,35.1,29.95,South,180,6.0,13.0,69,0.00,,,0.00,meteohub,2013-10-25 05:13:00,
2013-10-25 01:18:00,44.8,34.9,29.95,SE,135,7.0,13.0,68,0.00,,,0.00,meteohub,2013-10-25 05:18:00,
2013-10-25 01:24:00,44.8,35.6,29.95,WNW,293,10.0,13.0,70,0.00,,,0.00,meteohub,2013-10-25 05:24:00,
2013-10-25 01:29:00,45.0,36.1,29.95,SW,225,4.0,11.0,71,0.00,,,0.00,meteohub,2013-10-25 05:29:00,
2013-10-25 01:34:00,45.0,36.1,29.95,South,180,8.0,11.0,71,0.00,,,0.00,meteohub,2013-10-25 05:34:00,
2013-10-25 01:39:00,45.0,35.8,29.96,NW,315,7.0,11.0,70,0.00,,,0.00,meteohub,2013-10-25 05:39:00,
2013-10-25 01:44:00,44.8,35.2,29.96,East,90,5.0,12.0,69,0.00,,,0.00,meteohub,2013-10-25 05:44:00,
2013-10-25 01:49:00,44.8,34.9,29.96,SW,225,4.0,12.0,68,0.00,,,0.00,meteohub,2013-10-25 05:49:00,
2013-10-25 01:54:00,44.8,34.5,29.96,SW,225,6.0,12.0,67,0.00,,,0.00,meteohub,2013-10-25 05:54:00,
2013-10-25 02:00:00,44.8,34.9,29.96,NW,315,4.0,8.0,68,0.00,,,0.00,meteohub,2013-10-25 06:00:00,
2013-10-25 02:05:00,44.8,34.9,29.96,NW,315,4.0,11.0,68,0.00,,,0.00,meteohub,2013-10-25 06:05:00,
2013-10-25 02:10:00,44.8,36.0,29.96,South,180,9.0,11.0,71,0.00,,,0.00,meteohub,2013-10-25 06:10:00,
2013-10-25 02:15:00,44.8,35.6,29.96,South,180,6.0,9.0,70,0.00,,,0.00,meteohub,2013-10-25 06:15:00,
2013-10-25 02:20:00,44.8,35.2,29.96,NW,315,3.0,10.0,69,0.00,,,0.00,meteohub,2013-10-25 06:20:00,
2013-10-25 02:25:00,44.8,35.2,29.97,SE,135,5.0,10.0,69,0.00,,,0.00,meteohub,2013-10-25 06:25:00,
2013-10-25 02:30:00,44.8,34.9,29.97,SE,135,5.0,10.0,68,0.00,,,0.00,meteohub,2013-10-25 06:30:00,
2013-10-25 02:35:00,44.8,34.9,29.97,SE,135,2.0,9.0,68,0.00,,,0.00,meteohub,2013-10-25 06:35:00,
2013-10-25 02:41:00,44.8,34.9,29.97,SW,225,3.0,9.0,68,0.00,,,0.00,meteohub,2013-10-25 06:41:00,
2013-10-25 02:46:00,44.8,35.6,29.97,East,90,4.0,9.0,70,0.00,,,0.00,meteohub,2013-10-25 06:46:00,
2013-10-25 02:51:00,44.6,35.1,29.97,South,180,7.0,9.0,69,0.00,,,0.00,meteohub,2013-10-25 06:51:00,
2013-10-25 02:56:00,44.8,35.2,29.97,SE,135,4.0,8.0,69,0.00,,,0.00,meteohub,2013-10-25 06:56:00,
2013-10-25 03:01:00,44.8,34.9,29.97,SW,225,5.0,8.0,68,0.00,,,0.00,meteohub,2013-10-25 07:01:00,
2013-10-25 03:06:00,44.8,35.2,29.98,SE,135,5.0,8.0,69,0.00,,,0.00,meteohub,2013-10-25 07:06:00,
2013-10-25 03:11:00,45.0,35.4,29.98,NE,45,2.0,8.0,69,0.00,,,0.00,meteohub,2013-10-25 07:11:00,
2013-10-25 03:16:00,45.0,35.4,29.98,North,0,3.0,8.0,69,0.00,,,0.00,meteohub,2013-10-25 07:16:00,
2013-10-25 03:21:00,45.0,35.8,29.98,South,180,3.0,13.0,70,0.00,,,0.00,meteohub,2013-10-25 07:21:00,
2013-10-25 03:26:00,45.0,36.1,29.98,North,0,2.0,13.0,71,0.00,,,0.00,meteohub,2013-10-25 07:26:00,
2013-10-25 03:32:00,44.6,36.1,29.98,NE,45,4.0,13.0,72,0.00,,,0.00,meteohub,2013-10-25 07:32:00,
2013-10-25 03:37:00,44.1,37.0,29.98,South,180,4.0,8.0,76,0.00,,,0.00,meteohub,2013-10-25 07:37:00,
2013-10-25 03:42:00,43.5,37.4,29.99,NE,45,3.0,7.0,79,0.00,,,0.00,meteohub,2013-10-25 07:42:00,
2013-10-25 03:47:00,43.2,37.8,29.99,SW,225,3.0,7.0,81,0.00,,,0.00,meteohub,2013-10-25 07:47:00,
2013-10-25 03:52:00,42.6,37.8,29.99,SW,225,2.0,5.0,83,0.00,,,0.00,meteohub,2013-10-25 07:52:00,
2013-10-25 03:57:00,42.4,37.9,29.99,NE,45,2.0,5.0,84,0.00,,,0.00,meteohub,2013-10-25 07:57:00,
2013-10-25 04:02:00,42.3,37.8,29.99,SE,135,4.0,4.0,84,0.00,,,0.00,meteohub,2013-10-25 08:02:00,
2013-10-25 04:08:00,41.9,37.8,29.99,NE,45,3.0,4.0,85,0.00,,,0.00,meteohub,2013-10-25 08:08:00,
2013-10-25 04:13:00,41.7,37.8,29.99,NE,45,3.0,4.0,86,0.00,,,0.00,meteohub,2013-10-25 08:13:00,
2013-10-25 04:18:00,41.7,38.1,29.99,East,90,3.0,4.0,87,0.00,,,0.00,meteohub,2013-10-25 08:18:00,
2013-10-25 04:23:00,41.7,38.5,30.00,SE,135,2.0,4.0,88,0.00,,,0.00,meteohub,2013-10-25 08:23:00,
2013-10-25 04:28:00,41.7,38.5,29.99,NE,45,5.0,5.0,88,0.00,,,0.00,meteohub,2013-10-25 08:28:00,
2013-10-25 04:33:00,42.6,39.0,30.00,West,270,7.0,7.0,87,0.00,,,0.00,meteohub,2013-10-25 08:33:00,
2013-10-25 04:38:00,43.3,38.5,30.00,South,180,4.0,8.0,83,0.00,,,0.00,meteohub,2013-10-25 08:38:00,
2013-10-25 04:43:00,43.9,38.1,30.00,South,180,8.0,8.0,80,0.00,,,0.00,meteohub,2013-10-25 08:43:00,
2013-10-25 04:48:00,44.2,37.2,30.00,East,90,7.0,8.0,76,0.00,,,0.00,meteohub,2013-10-25 08:48:00,
2013-10-25 04:54:00,44.6,36.9,30.01,South,180,4.0,11.0,74,0.00,,,0.00,meteohub,2013-10-25 08:54:00,
2013-10-25 04:59:00,44.8,36.3,30.01,SE,135,5.0,11.0,72,0.00,,,0.00,meteohub,2013-10-25 08:59:00,
2013-10-25 05:04:00,44.8,36.0,30.01,South,180,7.0,11.0,71,0.00,,,0.00,meteohub,2013-10-25 09:04:00,
2013-10-25 05:09:00,44.8,36.0,30.01,South,180,7.0,11.0,71,0.00,,,0.00,meteohub,2013-10-25 09:09:00,
2013-10-25 05:14:00,44.8,36.0,30.01,North,0,2.0,11.0,71,0.00,,,0.00,meteohub,2013-10-25 09:14:00,
2013-10-25 05:19:00,44.6,35.8,30.01,SE,135,5.0,12.0,71,0.00,,,0.00,meteohub,2013-10-25 09:19:00,
2013-10-25 05:24:00,44.6,35.8,30.01,West,270,4.0,12.0,71,0.00,,,0.00,meteohub,2013-10-25 09:24:00,
2013-10-25 05:29:00,44.6,35.8,30.01,South,180,4.0,12.0,71,0.00,,,0.00,meteohub,2013-10-25 09:29:00,
2013-10-25 05:34:00,44.8,36.0,30.02,South,180,8.0,12.0,71,0.00,,,0.00,meteohub,2013-10-25 09:34:00,
2013-10-25 05:40:00,44.8,35.6,30.02,East,90,5.0,12.0,70,0.00,,,0.00,meteohub,2013-10-25 09:40:00,
2013-10-25 05:45:00,44.8,35.6,30.02,North,0,5.0,12.0,70,0.00,,,0.00,meteohub,2013-10-25 09:45:00,
2013-10-25 05:50:00,44.6,35.1,30.02,South,180,2.0,11.0,69,0.00,,,0.00,meteohub,2013-10-25 09:50:00,
2013-10-25 05:55:00,44.4,34.5,30.03,East,90,7.0,11.0,68,0.00,,,0.00,meteohub,2013-10-25 09:55:00,
2013-10-25 06:00:00,44.2,34.7,30.02,South,180,5.0,12.0,69,0.00,,,0.00,meteohub,2013-10-25 10:00:00,
2013-10-25 06:05:00,44.2,34.7,30.03,South,180,5.0,12.0,69,0.00,,,0.00,meteohub,2013-10-25 10:05:00,
2013-10-25 06:10:00,44.1,34.5,30.03,SW,225,4.0,9.0,69,0.00,,,0.00,meteohub,2013-10-25 10:10:00,
2013-10-25 06:15:00,44.1,34.5,30.03,SE,135,8.0,9.0,69,0.00,,,0.00,meteohub,2013-10-25 10:15:00,
2013-10-25 06:20:00,44.2,34.3,30.04,SW,225,5.0,10.0,68,0.00,,,0.00,meteohub,2013-10-25 10:20:00,
2013-10-25 06:26:00,44.2,34.3,30.04,South,180,6.0,13.0,68,0.00,,,0.00,meteohub,2013-10-25 10:26:00,
2013-10-25 06:31:00,44.2,34.0,30.04,West,270,11.0,13.0,67,0.00,,,0.00,meteohub,2013-10-25 10:31:00,
2013-10-25 06:36:00,44.2,34.3,30.04,South,180,4.0,13.0,68,0.00,,,0.00,meteohub,2013-10-25 10:36:00,
2013-10-25 06:41:00,44.4,34.5,30.04,SW,225,11.0,12.0,68,0.00,,,0.00,meteohub,2013-10-25 10:41:00,
2013-10-25 06:46:00,44.4,34.5,30.04,South,180,4.0,11.0,68,0.00,,,0.00,meteohub,2013-10-25 10:46:00,
2013-10-25 06:51:00,44.4,34.9,30.04,SW,225,7.0,11.0,69,0.00,,,0.00,meteohub,2013-10-25 10:51:00,
2013-10-25 06:56:00,44.4,35.2,30.05,South,180,3.0,11.0,70,0.00,,,0.00,meteohub,2013-10-25 10:56:00,
2013-10-25 07:01:00,44.6,35.4,30.05,South,180,4.0,10.0,70,0.00,,,0.00,meteohub,2013-10-25 11:01:00,
2013-10-25 07:07:00,44.6,35.8,30.05,South,180,8.0,10.0,71,0.00,,,0.00,meteohub,2013-10-25 11:07:00,
2013-10-25 07:12:00,44.8,36.0,30.06,South,180,4.0,12.0,71,0.00,,,0.00,meteohub,2013-10-25 11:12:00,
2013-10-25 07:17:00,44.6,35.8,30.05,SW,225,11.0,12.0,71,0.00,,,0.00,meteohub,2013-10-25 11:17:00,
2013-10-25 07:22:00,44.6,35.8,30.06,SE,135,4.0,12.0,71,0.00,,,0.00,meteohub,2013-10-25 11:22:00,
2013-10-25 07:27:00,44.6,35.1,30.06,SE,135,7.0,14.0,69,0.00,,,0.00,meteohub,2013-10-25 11:27:00,
2013-10-25 07:32:00,44.6,34.7,30.06,South,180,8.0,14.0,68,0.00,,,0.00,meteohub,2013-10-25 11:32:00,
2013-10-25 07:37:00,44.4,34.9,30.06,South,180,17.0,17.0,69,0.00,,,0.00,meteohub,2013-10-25 11:37:00,
2013-10-25 07:42:00,44.4,34.5,30.06,South,180,17.0,17.0,68,0.00,,,0.00,meteohub,2013-10-25 11:42:00,
2013-10-25 07:47:00,44.2,34.0,30.06,South,180,5.0,17.0,67,0.00,,,0.00,meteohub,2013-10-25 11:47:00,
2013-10-25 07:53:00,44.1,34.5,30.06,SW,225,7.0,17.0,69,0.00,,,0.00,meteohub,2013-10-25 11:53:00,
2013-10-25 07:58:00,44.1,34.5,30.06,South,180,9.0,17.0,69,0.00,,,0.00,meteohub,2013-10-25 11:58:00,
2013-10-25 08:03:00,44.1,34.9,30.07,South,180,8.0,11.0,70,0.00,,,0.00,meteohub,2013-10-25 12:03:00,
2013-10-25 08:08:00,44.1,35.6,30.08,SW,225,5.0,11.0,72,0.00,,,0.00,meteohub,2013-10-25 12:08:00,
2013-10-25 08:13:00,44.1,35.6,30.07,South,180,4.0,11.0,72,0.00,,,0.00,meteohub,2013-10-25 12:13:00,
2013-10-25 08:18:00,44.2,35.8,30.07,SE,135,7.0,10.0,72,0.00,,,0.00,meteohub,2013-10-25 12:18:00,
2013-10-25 08:23:00,44.8,36.0,30.08,SW,225,7.0,11.0,71,0.00,,,0.00,meteohub,2013-10-25 12:23:00,
2013-10-25 08:28:00,45.1,36.0,30.08,East,90,5.0,11.0,70,0.00,,,0.00,meteohub,2013-10-25 12:28:00,
2013-10-25 08:33:00,45.0,35.8,30.08,SE,135,10.0,11.0,70,0.00,,,0.00,meteohub,2013-10-25 12:33:00,
2013-10-25 08:39:00,45.0,36.1,30.09,South,180,8.0,11.0,71,0.00,,,0.00,meteohub,2013-10-25 12:39:00,
2013-10-25 08:44:00,45.0,35.8,30.09,East,90,4.0,11.0,70,0.00,,,0.00,meteohub,2013-10-25 12:44:00,
2013-10-25 08:49:00,45.5,36.7,30.09,East,90,7.0,10.0,71,0.00,,,0.00,meteohub,2013-10-25 12:49:00,
2013-10-25 08:54:00,45.9,38.3,30.09,NE,45,5.0,11.0,75,0.00,,,0.00,meteohub,2013-10-25 12:54:00,
2013-10-25 08:59:00,46.2,39.4,30.09,South,180,2.0,11.0,77,0.00,,,0.00,meteohub,2013-10-25 12:59:00,
2013-10-25 09:04:00,47.5,40.6,30.09,South,180,3.0,11.0,77,0.00,,,0.00,meteohub,2013-10-25 13:04:00,
2013-10-25 09:09:00,47.1,40.3,30.09,South,180,4.0,9.0,77,0.00,,,0.00,meteohub,2013-10-25 13:09:00,
2013-10-25 09:14:00,46.6,39.7,30.10,SW,225,7.0,7.0,77,0.00,,,0.00,meteohub,2013-10-25 13:14:00,
2013-10-25 09:20:00,46.4,38.3,30.09,NW,315,2.0,7.0,73,0.00,,,0.00,meteohub,2013-10-25 13:20:00,
2013-10-25 09:25:00,46.6,37.4,30.10,South,180,8.0,8.0,70,0.00,,,0.00,meteohub,2013-10-25 13:25:00,
2013-10-25 09:30:00,46.6,36.5,30.10,NE,45,8.0,11.0,68,0.00,,,0.00,meteohub,2013-10-25 13:30:00,
2013-10-25 09:35:00,47.3,36.9,30.10,South,180,6.0,11.0,67,0.00,,,0.00,meteohub,2013-10-25 13:35:00,
2013-10-25 09:40:00,47.1,37.0,30.10,South,180,10.0,11.0,68,0.00,,,0.00,meteohub,2013-10-25 13:40:00,
2013-10-25 09:45:00,47.1,37.0,30.10,SW,225,8.0,10.0,68,0.00,,,0.00,meteohub,2013-10-25 13:45:00,
2013-10-25 09:50:00,47.1,36.7,30.11,SE,135,10.0,10.0,67,0.00,,,0.00,meteohub,2013-10-25 13:50:00,
2013-10-25 09:55:00,46.9,36.5,30.11,South,180,8.0,17.0,67,0.00,,,0.00,meteohub,2013-10-25 13:55:00,
2013-10-25 10:00:00,46.9,36.9,30.11,South,180,2.0,17.0,68,0.00,,,0.00,meteohub,2013-10-25 14:00:00,
2013-10-25 10:06:00,46.8,36.7,30.11,SW,225,6.0,17.0,68,0.00,,,0.00,meteohub,2013-10-25 14:06:00,
2013-10-25 10:11:00,47.5,37.4,30.12,SE,135,4.0,11.0,68,0.00,,,0.00,meteohub,2013-10-25 14:11:00,
2013-10-25 10:16:00,47.8,37.4,30.11,East,90,8.0,11.0,67,0.00,,,0.00,meteohub,2013-10-25 14:16:00,
2013-10-25 10:21:00,48.0,37.6,30.12,South,180,8.0,13.0,67,0.00,,,0.00,meteohub,2013-10-25 14:21:00,
2013-10-25 10:26:00,47.7,36.9,30.12,South,180,5.0,13.0,66,0.00,,,0.00,meteohub,2013-10-25 14:26:00,
2013-10-25 10:31:00,47.5,36.7,30.12,SE,135,8.0,13.0,66,0.00,,,0.00,meteohub,2013-10-25 14:31:00,
2013-10-25 10:36:00,47.1,36.7,30.12,North,0,10.0,17.0,67,0.00,,,0.00,meteohub,2013-10-25 14:36:00,
2013-10-25 10:41:00,47.5,37.4,30.12,WSW,248,6.0,17.0,68,0.00,,,0.00,meteohub,2013-10-25 14:41:00,
2013-10-25 10:47:00,47.7,37.2,30.13,East,90,8.0,17.0,67,0.00,,,0.00,meteohub,2013-10-25 14:47:00,
2013-10-25 10:52:00,47.5,36.7,30.13,South,180,9.0,11.0,66,0.00,,,0.00,meteohub,2013-10-25 14:52:00,
2013-10-25 10:57:00,47.5,37.0,30.13,SE,135,5.0,14.0,67,0.00,,,0.00,meteohub,2013-10-25 14:57:00,
2013-10-25 11:02:00,47.5,37.4,30.13,SE,135,5.0,14.0,68,0.00,,,0.00,meteohub,2013-10-25 15:02:00,
2013-10-25 11:07:00,47.7,37.6,30.13,South,180,10.0,14.0,68,0.00,,,0.00,meteohub,2013-10-25 15:07:00,
2013-10-25 11:12:00,47.7,37.6,30.13,SE,135,6.0,12.0,68,0.00,,,0.00,meteohub,2013-10-25 15:12:00,
2013-10-25 11:17:00,47.7,37.6,30.13,SW,225,8.0,12.0,68,0.00,,,0.00,meteohub,2013-10-25 15:17:00,
2013-10-25 11:22:00,47.5,37.4,30.13,SW,225,6.0,11.0,68,0.00,,,0.00,meteohub,2013-10-25 15:22:00,
2013-10-25 11:27:00,47.5,37.4,30.14,South,180,7.0,11.0,68,0.00,,,0.00,meteohub,2013-10-25 15:27:00,
2013-10-25 11:33:00,47.5,37.4,30.13,SE,135,12.0,12.0,68,0.00,,,0.00,meteohub,2013-10-25 15:33:00,
2013-10-25 11:38:00,47.7,37.2,30.13,SE,135,11.0,14.0,67,0.00,,,0.00,meteohub,2013-10-25 15:38:00,
2013-10-25 11:43:00,48.2,37.4,30.14,South,180,8.0,14.0,66,0.00,,,0.00,meteohub,2013-10-25 15:43:00,
2013-10-25 11:48:00,48.6,37.4,30.14,South,180,7.0,14.0,65,0.00,,,0.00,meteohub,2013-10-25 15:48:00,
2013-10-25 11:53:00,49.3,37.9,30.14,SE,135,11.0,18.0,65,0.00,,,0.00,meteohub,2013-10-25 15:53:00,
2013-10-25 11:58:00,50.4,38.7,30.13,South,180,10.0,18.0,64,0.00,,,0.00,meteohub,2013-10-25 15:58:00,
2013-10-25 12:03:00,51.4,39.2,30.13,South,180,5.0,13.0,63,0.00,,,0.00,meteohub,2013-10-25 16:03:00,
2013-10-25 12:09:00,50.9,38.3,30.13,SW,225,4.0,13.0,62,0.00,,,0.00,meteohub,2013-10-25 16:09:00,
2013-10-25 12:14:00,49.3,37.6,30.13,SW,225,11.0,11.0,64,0.00,,,0.00,meteohub,2013-10-25 16:14:00,
2013-10-25 12:19:00,48.9,37.8,30.13,West,270,4.0,11.0,65,0.00,,,0.00,meteohub,2013-10-25 16:19:00,
2013-10-25 12:24:00,49.1,37.8,30.13,SE,135,6.0,11.0,65,0.00,,,0.00,meteohub,2013-10-25 16:24:00,
2013-10-25 12:29:00,49.3,38.5,30.12,SE,135,10.0,11.0,66,0.00,,,0.00,meteohub,2013-10-25 16:29:00,
2013-10-25 12:34:00,48.9,38.1,30.12,SW,225,5.0,11.0,66,0.00,,,0.00,meteohub,2013-10-25 16:34:00,
2013-10-25 12:39:00,49.3,38.5,30.12,SE,135,11.0,11.0,66,0.00,,,0.00,meteohub,2013-10-25 16:39:00,
2013-10-25 12:44:00,49.5,38.7,30.12,South,180,5.0,11.0,66,0.00,,,0.00,meteohub,2013-10-25 16:44:00,
2013-10-25 12:50:00,49.6,39.2,30.12,South,180,3.0,11.0,67,0.00,,,0.00,meteohub,2013-10-25 16:50:00,
2013-10-25 12:55:00,49.8,39.4,30.12,West,270,2.0,11.0,67,0.00,,,0.00,meteohub,2013-10-25 16:55:00,
2013-10-25 13:00:00,50.0,39.0,30.12,South,180,4.0,8.0,66,0.00,,,0.00,meteohub,2013-10-25 17:00:00,
2013-10-25 13:05:00,49.6,39.2,30.12,South,180,2.0,8.0,67,0.00,,,0.00,meteohub,2013-10-25 17:05:00,
2013-10-25 13:10:00,49.5,39.4,30.11,NE,45,2.0,10.0,68,0.00,,,0.00,meteohub,2013-10-25 17:10:00,
2013-10-25 13:15:00,49.8,39.7,30.12,South,180,11.0,11.0,68,0.00,,,0.00,meteohub,2013-10-25 17:15:00,
2013-10-25 13:20:00,50.0,39.0,30.11,South,180,4.0,11.0,66,0.00,,,0.00,meteohub,2013-10-25 17:20:00,
2013-10-25 13:25:00,50.0,39.0,30.11,SE,135,7.0,11.0,66,0.00,,,0.00,meteohub,2013-10-25 17:25:00,
2013-10-25 13:30:00,49.6,39.2,30.11,South,180,5.0,11.0,67,0.00,,,0.00,meteohub,2013-10-25 17:30:00,
2013-10-25 13:36:00,49.3,39.2,30.11,East,90,5.0,12.0,68,0.00,,,0.00,meteohub,2013-10-25 17:36:00,
2013-10-25 13:41:00,49.5,39.7,30.11,SE,135,4.0,12.0,69,0.00,,,0.00,meteohub,2013-10-25 17:41:00,
2013-10-25 13:46:00,49.8,40.5,30.10,SE,135,4.0,12.0,70,0.00,,,0.00,meteohub,2013-10-25 17:46:00,
2013-10-25 13:51:00,50.7,41.0,30.11,SE,135,7.0,9.0,69,0.00,,,0.00,meteohub,2013-10-25 17:51:00,
2013-10-25 13:56:00,51.4,41.5,30.10,South,180,6.0,10.0,69,0.00,,,0.00,meteohub,2013-10-25 17:56:00,
2013-10-25 14:01:00,51.4,41.2,30.10,NE,45,12.0,12.0,68,0.00,,,0.00,meteohub,2013-10-25 18:01:00,
2013-10-25 14:06:00,54.3,42.8,30.10,SE,135,6.0,12.0,65,0.00,,,0.00,meteohub,2013-10-25 18:06:00,
2013-10-25 14:11:00,55.6,43.2,30.10,SE,135,8.0,12.0,63,0.00,,,0.00,meteohub,2013-10-25 18:11:00,
2013-10-25 14:16:00,54.9,42.1,30.09,SE,135,8.0,12.0,62,0.00,,,0.00,meteohub,2013-10-25 18:16:00,
2013-10-25 14:22:00,55.2,42.4,30.09,SE,135,10.0,10.0,62,0.00,,,0.00,meteohub,2013-10-25 18:22:00,
2013-10-25 14:27:00,54.5,41.4,30.09,South,180,5.0,10.0,61,0.00,,,0.00,meteohub,2013-10-25 18:27:00,
2013-10-25 14:32:00,52.9,40.6,30.10,NW,315,8.0,11.0,63,0.00,,,0.00,meteohub,2013-10-25 18:32:00,
2013-10-25 14:37:00,51.3,40.6,30.09,NE,45,6.0,11.0,67,0.00,,,0.00,meteohub,2013-10-25 18:37:00,
2013-10-25 14:42:00,50.9,41.2,30.09,SE,135,6.0,11.0,69,0.00,,,0.00,meteohub,2013-10-25 18:42:00,
2013-10-25 14:47:00,50.7,41.0,30.09,South,180,6.0,11.0,69,0.00,,,0.00,meteohub,2013-10-25 18:47:00,
2013-10-25 14:52:00,50.5,40.8,30.09,NNW,338,6.0,11.0,69,0.00,,,0.00,meteohub,2013-10-25 18:52:00,
2013-10-25 14:57:00,52.5,42.3,30.09,NW,315,7.0,11.0,68,0.00,,,0.00,meteohub,2013-10-25 18:57:00,
2013-10-25 15:03:00,53.6,41.4,30.09,West,270,11.0,11.0,63,0.00,,,0.00,meteohub,2013-10-25 19:03:00,
2013-10-25 15:08:00,52.7,40.5,30.09,SW,225,9.0,9.0,63,0.00,,,0.00,meteohub,2013-10-25 19:08:00,
2013-10-25 15:13:00,51.6,41.0,30.09,South,180,3.0,11.0,67,0.00,,,0.00,meteohub,2013-10-25 19:13:00,
2013-10-25 15:18:00,50.9,40.6,30.09,SW,225,8.0,11.0,68,0.00,,,0.00,meteohub,2013-10-25 19:18:00,
2013-10-25 15:23:00,51.1,41.7,30.09,West,270,7.0,12.0,70,0.00,,,0.00,meteohub,2013-10-25 19:23:00,
2013-10-25 15:28:00,50.9,40.6,30.10,South,180,9.0,12.0,68,0.00,,,0.00,meteohub,2013-10-25 19:28:00,
2013-10-25 15:33:00,50.0,39.9,30.10,SW,225,7.0,12.0,68,0.00,,,0.00,meteohub,2013-10-25 19:33:00,
2013-10-25 15:38:00,48.7,40.5,30.10,South,180,11.0,11.0,73,0.00,,,0.00,meteohub,2013-10-25 19:38:00,
2013-10-25 15:44:00,46.8,40.3,30.10,South,180,4.0,12.0,78,0.00,,,0.00,meteohub,2013-10-25 19:44:00,
2013-10-25 15:49:00,45.5,40.3,30.11,SE,135,4.0,19.0,82,0.00,,,0.00,meteohub,2013-10-25 19:49:00,
2013-10-25 15:54:00,45.5,41.0,30.10,East,90,5.0,19.0,84,0.01,,,0.01,meteohub,2013-10-25 19:54:00,
2013-10-25 15:59:00,46.2,41.9,30.10,SE,135,4.0,19.0,85,0.01,,,0.01,meteohub,2013-10-25 19:59:00,
2013-10-25 16:04:00,47.1,42.8,30.10,West,270,11.0,11.0,85,0.01,,,0.01,meteohub,2013-10-25 20:04:00,
2013-10-25 16:09:00,47.7,42.8,30.10,South,180,5.0,11.0,83,0.01,,,0.01,meteohub,2013-10-25 20:09:00,
2013-10-25 16:14:00,47.5,41.5,30.10,NE,45,4.0,13.0,80,0.01,,,0.01,meteohub,2013-10-25 20:14:00,
2013-10-25 16:20:00,47.3,41.2,30.10,SE,135,9.0,13.0,79,0.01,,,0.01,meteohub,2013-10-25 20:20:00,
2013-10-25 16:25:00,47.5,41.4,30.10,SE,135,7.0,10.0,79,0.01,,,0.01,meteohub,2013-10-25 20:25:00,
2013-10-25 16:30:00,47.8,41.4,30.10,West,270,9.0,9.0,78,0.01,,,0.01,meteohub,2013-10-25 20:30:00,
2013-10-25 16:35:00,48.2,40.6,30.10,South,180,7.0,14.0,75,0.01,,,0.01,meteohub,2013-10-25 20:35:00,
2013-10-25 16:40:00,48.6,41.4,30.10,SE,135,8.0,14.0,76,0.01,,,0.01,meteohub,2013-10-25 20:40:00,
2013-10-25 16:46:00,48.7,41.2,30.10,South,180,13.0,14.0,75,0.00,,,0.01,meteohub,2013-10-25 20:46:00,
2013-10-25 16:51:00,48.4,40.8,30.09,East,90,8.0,13.0,75,0.00,,,0.01,meteohub,2013-10-25 20:51:00,
2013-10-25 16:56:00,48.2,40.6,30.10,NW,315,4.0,13.0,75,0.00,,,0.01,meteohub,2013-10-25 20:56:00,
2013-10-25 17:01:00,48.0,40.8,30.10,SE,135,8.0,13.0,76,0.00,,,0.01,meteohub,2013-10-25 21:01:00,
2013-10-25 17:06:00,48.0,41.5,30.10,South,180,7.0,13.0,78,0.00,,,0.01,meteohub,2013-10-25 21:06:00,
2013-10-25 17:11:00,48.0,40.5,30.09,East,90,5.0,13.0,75,0.00,,,0.01,meteohub,2013-10-25 21:11:00,
2013-10-25 17:17:00,48.0,40.1,30.09,SE,135,7.0,10.0,74,0.00,,,0.01,meteohub,2013-10-25 21:17:00,
2013-10-25 17:22:00,48.0,40.5,30.09,East,90,11.0,12.0,75,0.00,,,0.01,meteohub,2013-10-25 21:22:00,
2013-10-25 17:27:00,48.0,40.5,30.09,South,180,2.0,15.0,75,0.00,,,0.01,meteohub,2013-10-25 21:27:00,
2013-10-25 17:32:00,48.0,40.8,30.09,SW,225,8.0,15.0,76,0.00,,,0.01,meteohub,2013-10-25 21:32:00,
2013-10-25 17:37:00,47.8,40.6,30.10,SW,225,8.0,15.0,76,0.00,,,0.01,meteohub,2013-10-25 21:37:00,
2013-10-25 17:42:00,47.7,40.5,30.10,South,180,8.0,11.0,76,0.00,,,0.01,meteohub,2013-10-25 21:42:00,
2013-10-25 17:48:00,46.8,40.3,30.10,South,180,5.0,11.0,78,0.00,,,0.01,meteohub,2013-10-25 21:48:00,
2013-10-25 17:53:00,46.6,40.1,30.10,West,270,4.0,11.0,78,0.00,,,0.01,meteohub,2013-10-25 21:53:00,
2013-10-25 17:58:00,46.6,40.5,30.10,SE,135,5.0,8.0,79,0.00,,,0.01,meteohub,2013-10-25 21:58:00,
2013-10-25 18:03:00,46.4,40.8,30.09,SE,135,4.0,10.0,81,0.00,,,0.01,meteohub,2013-10-25 22:03:00,
2013-10-25 18:08:00,46.0,40.8,30.10,West,270,8.0,11.0,82,0.00,,,0.01,meteohub,2013-10-25 22:08:00,
2013-10-25 18:13:00,43.9,39.9,30.10,North,0,4.0,11.0,86,0.02,,,0.04,meteohub,2013-10-25 22:13:00,
2013-10-25 18:18:00,43.2,40.1,30.10,NE,45,2.0,11.0,89,0.04,,,0.05,meteohub,2013-10-25 22:18:00,
2013-10-25 18:24:00,43.2,40.5,30.10,East,90,2.0,8.0,90,0.04,,,0.05,meteohub,2013-10-25 22:24:00,
2013-10-25 18:29:00,43.3,41.2,30.11,South,180,2.0,7.0,92,0.04,,,0.05,meteohub,2013-10-25 22:29:00,
2013-10-25 18:34:00,43.5,41.7,30.10,South,180,14.0,14.0,93,0.04,,,0.05,meteohub,2013-10-25 22:34:00,
2013-10-25 18:39:00,43.9,42.3,30.11,South,180,8.0,8.0,94,0.04,,,0.05,meteohub,2013-10-25 22:39:00,
2013-10-25 18:44:00,44.1,42.4,30.11,WNW,293,12.0,14.0,94,0.04,,,0.05,meteohub,2013-10-25 22:44:00,
2013-10-25 18:49:00,44.1,42.4,30.12,WNW,293,12.0,14.0,94,0.04,,,0.05,meteohub,2013-10-25 22:49:00,
2013-10-25 18:54:00,44.1,42.4,30.11,WNW,293,12.0,14.0,94,0.04,,,0.05,meteohub,2013-10-25 22:54:00,
2013-10-25 18:59:00,43.9,41.7,30.12,SE,135,5.0,12.0,92,0.04,,,0.05,meteohub,2013-10-25 22:59:00,
2013-10-25 19:05:00,43.2,41.0,30.12,North,0,8.0,12.0,92,0.04,,,0.05,meteohub,2013-10-25 23:05:00,
2013-10-25 19:10:00,42.3,40.5,30.11,South,180,10.0,16.0,93,0.05,,,0.08,meteohub,2013-10-25 23:10:00,
2013-10-25 19:15:00,42.3,40.6,30.11,East,90,6.0,16.0,94,0.04,,,0.09,meteohub,2013-10-25 23:15:00,
2013-10-25 19:20:00,42.3,40.6,30.11,East,90,6.0,16.0,94,0.05,,,0.09,meteohub,2013-10-25 23:20:00,
2013-10-25 19:25:00,42.3,40.6,30.11,East,90,6.0,10.0,94,0.05,,,0.09,meteohub,2013-10-25 23:25:00,
2013-10-25 19:30:00,42.3,40.6,30.11,East,90,6.0,7.0,94,0.05,,,0.09,meteohub,2013-10-25 23:30:00,
2013-10-25 19:51:00,40.3,-12.1,30.12,North,-999,-999.0,-999.0,10,0.05,,,0.09,meteohub,2013-10-25 23:51:00,
2013-10-25 20:09:00,40.3,-12.1,30.12,North,-999,-999.0,-999.0,10,0.01,,,0.09,meteohub,2013-10-26 00:09:00,
2013-10-25 20:33:00,41.5,40.8,30.12,East,90,4.0,-999.0,97,-99.99,,,0.09,meteohub,2013-10-26 00:33:00,
2013-10-25 20:38:00,41.4,40.3,30.12,NE,45,6.0,-999.0,96,-99.99,,,0.09,meteohub,2013-10-26 00:38:00,
2013-10-25 20:43:00,41.4,40.3,30.11,NE,45,4.0,11.0,96,0.00,,,0.09,meteohub,2013-10-26 00:43:00,
2013-10-25 20:48:00,41.0,39.7,30.12,SE,135,2.0,11.0,95,0.00,,,0.09,meteohub,2013-10-26 00:48:00,
2013-10-25 20:54:00,41.0,39.7,30.12,South,180,6.0,11.0,95,0.00,,,0.09,meteohub,2013-10-26 00:54:00,
2013-10-25 20:59:00,40.8,39.7,30.12,SE,135,2.0,10.0,96,0.00,,,0.09,meteohub,2013-10-26 00:59:00,
2013-10-25 21:04:00,40.8,39.7,30.12,NW,315,3.0,7.0,96,0.00,,,0.09,meteohub,2013-10-26 01:04:00,
2013-10-25 21:09:00,40.8,40.1,30.12,NE,45,2.0,6.0,97,0.00,,,0.09,meteohub,2013-10-26 01:09:00,
2013-10-25 21:14:00,40.8,40.1,30.11,NE,45,2.0,5.0,97,0.00,,,0.09,meteohub,2013-10-26 01:14:00,
2013-10-25 21:19:00,40.8,40.1,30.12,NE,45,4.0,4.0,97,0.00,,,0.09,meteohub,2013-10-26 01:19:00,
2013-10-25 21:24:00,40.6,39.9,30.12,NE,45,2.0,4.0,97,0.00,,,0.09,meteohub,2013-10-26 01:24:00,
2013-10-25 21:30:00,40.3,39.6,30.12,NE,45,3.0,4.0,97,0.00,,,0.09,meteohub,2013-10-26 01:30:00,
2013-10-25 21:35:00,40.3,39.6,30.11,NE,45,3.0,5.0,97,0.00,,,0.09,meteohub,2013-10-26 01:35:00,
2013-10-25 21:40:00,39.9,39.2,30.11,North,0,2.0,5.0,97,0.00,,,0.09,meteohub,2013-10-26 01:40:00,
2013-10-25 21:45:00,39.7,39.0,30.11,NE,45,2.0,5.0,97,0.00,,,0.09,meteohub,2013-10-26 01:45:00,
2013-10-25 21:50:00,39.6,38.8,30.11,SE,135,2.0,3.0,97,0.00,,,0.09,meteohub,2013-10-26 01:50:00,
2013-10-25 21:55:00,39.2,38.5,30.12,North,0,2.0,4.0,97,0.00,,,0.09,meteohub,2013-10-26 01:55:00,
2013-10-25 22:00:00,39.2,38.7,30.12,NE,45,4.0,4.0,98,0.00,,,0.09,meteohub,2013-10-26 02:00:00,
2013-10-25 22:06:00,40.3,-12.1,30.12,NE,45,4.0,4.0,10,0.00,,,0.09,meteohub,2013-10-26 02:06:00,
2013-10-25 22:11:00,39.7,39.2,30.12,East,90,2.0,4.0,98,0.00,,,0.09,meteohub,2013-10-26 02:11:00,
2013-10-25 22:16:00,39.7,39.6,30.11,NE,45,2.0,4.0,99,0.00,,,0.09,meteohub,2013-10-26 02:16:00,
2013-10-25 22:21:00,39.7,39.6,30.11,North,0,3.0,4.0,99,0.00,,,0.09,meteohub,2013-10-26 02:21:00,
2013-10-25 22:26:00,39.6,39.0,30.11,South,180,3.0,4.0,98,0.00,,,0.09,meteohub,2013-10-26 02:26:00,
2013-10-25 22:31:00,39.2,38.7,30.11,NE,45,2.0,5.0,98,0.00,,,0.09,meteohub,2013-10-26 02:31:00,
2013-10-25 22:36:00,39.2,38.7,30.11,NE,45,3.0,5.0,98,0.00,,,0.09,meteohub,2013-10-26 02:36:00,
2013-10-25 22:42:00,39.0,38.8,30.11,NE,45,2.0,5.0,99,0.00,,,0.09,meteohub,2013-10-26 02:42:00,
2013-10-25 22:47:00,39.0,38.8,30.12,NE,45,5.0,5.0,99,0.00,,,0.09,meteohub,2013-10-26 02:47:00,
2013-10-25 22:52:00,39.2,38.7,30.11,North,0,2.0,5.0,98,0.00,,,0.09,meteohub,2013-10-26 02:52:00,
2013-10-25 22:57:00,39.0,38.8,30.11,North,0,4.0,5.0,99,0.00,,,0.09,meteohub,2013-10-26 02:57:00,
2013-10-25 23:02:00,39.0,38.8,30.10,NE,45,5.0,5.0,99,0.00,,,0.09,meteohub,2013-10-26 03:02:00,
2013-10-25 23:07:00,39.0,38.8,30.10,East,90,2.0,9.0,99,0.00,,,0.09,meteohub,2013-10-26 03:07:00,
2013-10-25 23:12:00,38.8,38.7,30.10,NW,315,4.0,9.0,99,0.00,,,0.09,meteohub,2013-10-26 03:12:00,
2013-10-25 23:18:00,39.0,38.8,30.10,NE,45,3.0,5.0,99,0.00,,,0.09,meteohub,2013-10-26 03:18:00,
2013-10-25 23:23:00,39.2,39.0,30.10,NE,45,2.0,4.0,99,0.00,,,0.09,meteohub,2013-10-26 03:23:00,
2013-10-25 23:28:00,39.6,39.4,30.09,NE,45,2.0,4.0,99,0.00,,,0.09,meteohub,2013-10-26 03:28:00,
2013-10-25 23:33:00,39.7,39.6,30.09,NE,45,2.0,4.0,99,0.00,,,0.09,meteohub,2013-10-26 03:33:00,
2013-10-25 23:38:00,39.9,39.7,30.09,North,0,2.0,2.0,99,0.00,,,0.09,meteohub,2013-10-26 03:38:00,
2013-10-25 23:43:00,40.1,39.9,30.08,North,0,2.0,4.0,99,0.00,,,0.09,meteohub,2013-10-26 03:43:00,
2013-10-25 23:48:00,40.1,39.9,30.08,NE,45,1.0,4.0,99,0.00,,,0.09,meteohub,2013-10-26 03:48:00,
2013-10-25 23:54:00,39.9,39.4,30.08,NE,45,2.0,4.0,98,0.00,,,0.09,meteohub,2013-10-26 03:54:00,
2013-10-25 23:59:00,39.7,39.2,30.08,NE,45,2.0,4.0,98,0.00,,,0.09,meteohub,2013-10-26 03:59:00,